sensor_id;sensor_type;location;lat;lon;timestamp;P1;durP1;ratioP1;P2;durP2;ratioP2
61709;SDS011;73500;51.494;5.386;2024-03-06T00:01:57;5.20;;;2.80;;
61709;SDS011;73500;51.494;5.386;2024-03-06T00:04:22;5.22;;;3.20;;
61709;SDS011;73500;51.494;5.386;2024-03-06T00:06:47;6.90;;;3.10;;
61709;SDS011;73500;51.494;5.386;2024-03-06T00:09:13;5.60;;;3.40;;
61709;SDS011;73500;51.494;5.386;2024-03-06T00:11:38;4.57;;;2.95;;
61709;SDS011;73500;51.494;5.386;2024-03-06T00:14:03;5.88;;;3.10;;
61709;SDS011;73500;51.494;5.386;2024-03-06T00:16:30;5.25;;;3.22;;
61709;SDS011;73500;51.494;5.386;2024-03-06T00:18:56;4.32;;;2.85;;
61709;SDS011;73500;51.494;5.386;2024-03-06T00:21:21;5.10;;;3.03;;
61709;SDS011;73500;51.494;5.386;2024-03-06T00:23:47;4.97;;;3.17;;
61709;SDS011;73500;51.494;5.386;2024-03-06T00:26:12;5.05;;;3.15;;
61709;SDS011;73500;51.494;5.386;2024-03-06T00:28:38;6.00;;;3.30;;
61709;SDS011;73500;51.494;5.386;2024-03-06T00:31:04;5.57;;;3.08;;
61709;SDS011;73500;51.494;5.386;2024-03-06T00:33:30;4.72;;;2.95;;
61709;SDS011;73500;51.494;5.386;2024-03-06T00:35:55;5.78;;;3.50;;
61709;SDS011;73500;51.494;5.386;2024-03-06T00:38:21;5.13;;;3.30;;
61709;SDS011;73500;51.494;5.386;2024-03-06T00:40:46;5.45;;;2.90;;
61709;SDS011;73500;51.494;5.386;2024-03-06T00:43:11;5.25;;;3.05;;
61709;SDS011;73500;51.494;5.386;2024-03-06T00:45:37;4.80;;;2.85;;
61709;SDS011;73500;51.494;5.386;2024-03-06T00:48:02;5.03;;;3.05;;
61709;SDS011;73500;51.494;5.386;2024-03-06T00:50:28;5.90;;;3.30;;
61709;SDS011;73500;51.494;5.386;2024-03-06T00:52:53;4.85;;;2.75;;
61709;SDS011;73500;51.494;5.386;2024-03-06T00:55:19;4.57;;;2.92;;
61709;SDS011;73500;51.494;5.386;2024-03-06T00:57:44;4.75;;;3.10;;
61709;SDS011;73500;51.494;5.386;2024-03-06T01:00:09;5.47;;;3.55;;
61709;SDS011;73500;51.494;5.386;2024-03-06T01:02:39;4.72;;;3.08;;
61709;SDS011;73500;51.494;5.386;2024-03-06T01:05:05;4.88;;;2.90;;
61709;SDS011;73500;51.494;5.386;2024-03-06T01:07:32;5.70;;;3.10;;
61709;SDS011;73500;51.494;5.386;2024-03-06T01:09:58;5.10;;;2.90;;
61709;SDS011;73500;51.494;5.386;2024-03-06T01:12:23;4.93;;;3.10;;
61709;SDS011;73500;51.494;5.386;2024-03-06T01:14:49;5.10;;;2.92;;
61709;SDS011;73500;51.494;5.386;2024-03-06T01:17:14;5.05;;;3.20;;
61709;SDS011;73500;51.494;5.386;2024-03-06T01:19:40;5.35;;;3.05;;
61709;SDS011;73500;51.494;5.386;2024-03-06T01:22:05;5.18;;;3.15;;
61709;SDS011;73500;51.494;5.386;2024-03-06T01:24:30;5.22;;;3.05;;
61709;SDS011;73500;51.494;5.386;2024-03-06T01:26:56;4.80;;;2.67;;
61709;SDS011;73500;51.494;5.386;2024-03-06T01:29:21;5.00;;;3.20;;
61709;SDS011;73500;51.494;5.386;2024-03-06T01:31:46;5.05;;;3.03;;
61709;SDS011;73500;51.494;5.386;2024-03-06T01:34:12;5.72;;;3.03;;
61709;SDS011;73500;51.494;5.386;2024-03-06T01:36:37;5.40;;;3.05;;
61709;SDS011;73500;51.494;5.386;2024-03-06T01:39:02;7.15;;;3.20;;
61709;SDS011;73500;51.494;5.386;2024-03-06T01:41:28;4.90;;;3.00;;
61709;SDS011;73500;51.494;5.386;2024-03-06T01:43:53;5.25;;;2.95;;
61709;SDS011;73500;51.494;5.386;2024-03-06T01:46:19;4.53;;;2.60;;
61709;SDS011;73500;51.494;5.386;2024-03-06T01:48:44;5.35;;;3.40;;
61709;SDS011;73500;51.494;5.386;2024-03-06T01:51:10;4.85;;;3.08;;
61709;SDS011;73500;51.494;5.386;2024-03-06T01:53:36;6.15;;;3.10;;
61709;SDS011;73500;51.494;5.386;2024-03-06T01:56:03;4.72;;;2.97;;
61709;SDS011;73500;51.494;5.386;2024-03-06T01:58:29;4.70;;;2.88;;
61709;SDS011;73500;51.494;5.386;2024-03-06T02:00:55;5.20;;;2.97;;
61709;SDS011;73500;51.494;5.386;2024-03-06T02:03:22;5.38;;;3.17;;
61709;SDS011;73500;51.494;5.386;2024-03-06T02:05:48;5.00;;;3.20;;
61709;SDS011;73500;51.494;5.386;2024-03-06T02:08:15;8.73;;;3.45;;
61709;SDS011;73500;51.494;5.386;2024-03-06T02:10:41;6.72;;;3.13;;
61709;SDS011;73500;51.494;5.386;2024-03-06T02:13:06;4.90;;;3.22;;
61709;SDS011;73500;51.494;5.386;2024-03-06T02:15:32;4.57;;;3.05;;
61709;SDS011;73500;51.494;5.386;2024-03-06T02:17:57;5.90;;;3.45;;
61709;SDS011;73500;51.494;5.386;2024-03-06T02:20:23;5.40;;;3.28;;
61709;SDS011;73500;51.494;5.386;2024-03-06T02:22:49;6.07;;;3.33;;
61709;SDS011;73500;51.494;5.386;2024-03-06T02:25:15;5.15;;;3.17;;
61709;SDS011;73500;51.494;5.386;2024-03-06T02:27:42;5.28;;;2.88;;
61709;SDS011;73500;51.494;5.386;2024-03-06T02:30:08;4.45;;;2.50;;
61709;SDS011;73500;51.494;5.386;2024-03-06T02:32:33;4.85;;;2.65;;
61709;SDS011;73500;51.494;5.386;2024-03-06T02:35:00;4.43;;;3.00;;
61709;SDS011;73500;51.494;5.386;2024-03-06T02:37:28;5.28;;;3.28;;
61709;SDS011;73500;51.494;5.386;2024-03-06T02:39:53;5.47;;;3.10;;
61709;SDS011;73500;51.494;5.386;2024-03-06T02:42:19;4.75;;;2.97;;
61709;SDS011;73500;51.494;5.386;2024-03-06T02:44:44;5.30;;;3.03;;
61709;SDS011;73500;51.494;5.386;2024-03-06T02:47:09;4.70;;;3.13;;
61709;SDS011;73500;51.494;5.386;2024-03-06T02:49:35;6.10;;;3.05;;
61709;SDS011;73500;51.494;5.386;2024-03-06T02:52:00;4.97;;;3.03;;
61709;SDS011;73500;51.494;5.386;2024-03-06T02:54:26;4.53;;;2.92;;
61709;SDS011;73500;51.494;5.386;2024-03-06T02:56:52;5.63;;;3.00;;
61709;SDS011;73500;51.494;5.386;2024-03-06T02:59:17;4.80;;;2.80;;
61709;SDS011;73500;51.494;5.386;2024-03-06T03:01:43;4.72;;;2.92;;
61709;SDS011;73500;51.494;5.386;2024-03-06T03:04:09;4.30;;;2.90;;
61709;SDS011;73500;51.494;5.386;2024-03-06T03:06:35;4.97;;;3.20;;
61709;SDS011;73500;51.494;5.386;2024-03-06T03:09:00;5.47;;;3.13;;
61709;SDS011;73500;51.494;5.386;2024-03-06T03:11:26;5.60;;;2.78;;
61709;SDS011;73500;51.494;5.386;2024-03-06T03:13:52;5.28;;;3.28;;
61709;SDS011;73500;51.494;5.386;2024-03-06T03:16:17;4.82;;;3.03;;
61709;SDS011;73500;51.494;5.386;2024-03-06T03:18:44;4.88;;;2.83;;
61709;SDS011;73500;51.494;5.386;2024-03-06T03:21:10;5.68;;;2.90;;
61709;SDS011;73500;51.494;5.386;2024-03-06T03:23:35;4.47;;;2.55;;
61709;SDS011;73500;51.494;5.386;2024-03-06T03:26:01;5.20;;;3.10;;
61709;SDS011;73500;51.494;5.386;2024-03-06T03:28:28;4.15;;;2.65;;
61709;SDS011;73500;51.494;5.386;2024-03-06T03:30:54;4.75;;;2.85;;
61709;SDS011;73500;51.494;5.386;2024-03-06T03:33:19;4.75;;;3.00;;
61709;SDS011;73500;51.494;5.386;2024-03-06T03:35:45;4.70;;;2.90;;
61709;SDS011;73500;51.494;5.386;2024-03-06T03:38:10;4.80;;;2.88;;
61709;SDS011;73500;51.494;5.386;2024-03-06T03:40:35;4.47;;;3.08;;
61709;SDS011;73500;51.494;5.386;2024-03-06T03:43:00;4.70;;;2.80;;
61709;SDS011;73500;51.494;5.386;2024-03-06T03:45:31;5.25;;;2.75;;
61709;SDS011;73500;51.494;5.386;2024-03-06T03:47:56;4.68;;;2.78;;
61709;SDS011;73500;51.494;5.386;2024-03-06T03:50:21;4.57;;;2.67;;
61709;SDS011;73500;51.494;5.386;2024-03-06T03:52:47;5.25;;;2.63;;
61709;SDS011;73500;51.494;5.386;2024-03-06T03:55:12;5.00;;;2.90;;
61709;SDS011;73500;51.494;5.386;2024-03-06T03:57:37;4.40;;;2.58;;
61709;SDS011;73500;51.494;5.386;2024-03-06T04:00:03;4.15;;;2.55;;
61709;SDS011;73500;51.494;5.386;2024-03-06T04:02:35;5.32;;;3.10;;
61709;SDS011;73500;51.494;5.386;2024-03-06T04:05:01;4.95;;;2.78;;
61709;SDS011;73500;51.494;5.386;2024-03-06T04:07:26;5.20;;;2.90;;
61709;SDS011;73500;51.494;5.386;2024-03-06T04:09:51;4.53;;;2.80;;
61709;SDS011;73500;51.494;5.386;2024-03-06T04:12:17;5.00;;;2.95;;
61709;SDS011;73500;51.494;5.386;2024-03-06T04:14:42;4.95;;;3.25;;
61709;SDS011;73500;51.494;5.386;2024-03-06T04:17:07;5.32;;;3.25;;
61709;SDS011;73500;51.494;5.386;2024-03-06T04:19:32;5.88;;;3.40;;
61709;SDS011;73500;51.494;5.386;2024-03-06T04:21:59;4.40;;;2.95;;
61709;SDS011;73500;51.494;5.386;2024-03-06T04:24:24;5.05;;;3.08;;
61709;SDS011;73500;51.494;5.386;2024-03-06T04:26:49;4.60;;;3.10;;
61709;SDS011;73500;51.494;5.386;2024-03-06T04:29:14;4.85;;;3.28;;
61709;SDS011;73500;51.494;5.386;2024-03-06T04:31:40;7.43;;;2.90;;
61709;SDS011;73500;51.494;5.386;2024-03-06T04:34:06;4.85;;;3.00;;
61709;SDS011;73500;51.494;5.386;2024-03-06T04:36:31;5.55;;;3.20;;
61709;SDS011;73500;51.494;5.386;2024-03-06T04:38:57;4.45;;;2.72;;
61709;SDS011;73500;51.494;5.386;2024-03-06T04:41:22;5.45;;;3.40;;
61709;SDS011;73500;51.494;5.386;2024-03-06T04:43:48;4.60;;;2.88;;
61709;SDS011;73500;51.494;5.386;2024-03-06T04:46:15;6.13;;;3.08;;
61709;SDS011;73500;51.494;5.386;2024-03-06T04:48:41;4.53;;;2.70;;
61709;SDS011;73500;51.494;5.386;2024-03-06T04:51:06;4.50;;;2.95;;
61709;SDS011;73500;51.494;5.386;2024-03-06T04:53:31;4.85;;;2.85;;
61709;SDS011;73500;51.494;5.386;2024-03-06T04:55:57;5.07;;;3.25;;
61709;SDS011;73500;51.494;5.386;2024-03-06T04:58:22;5.25;;;3.25;;
61709;SDS011;73500;51.494;5.386;2024-03-06T05:00:47;4.95;;;3.28;;
61709;SDS011;73500;51.494;5.386;2024-03-06T05:03:13;5.15;;;3.20;;
61709;SDS011;73500;51.494;5.386;2024-03-06T05:05:38;5.32;;;3.30;;
61709;SDS011;73500;51.494;5.386;2024-03-06T05:08:05;5.50;;;3.05;;
61709;SDS011;73500;51.494;5.386;2024-03-06T05:10:32;5.93;;;3.00;;
61709;SDS011;73500;51.494;5.386;2024-03-06T05:12:57;4.90;;;3.22;;
61709;SDS011;73500;51.494;5.386;2024-03-06T05:15:22;4.55;;;2.85;;
61709;SDS011;73500;51.494;5.386;2024-03-06T05:17:47;5.47;;;2.85;;
61709;SDS011;73500;51.494;5.386;2024-03-06T05:20:13;5.27;;;3.20;;
61709;SDS011;73500;51.494;5.386;2024-03-06T05:22:39;4.75;;;3.28;;
61709;SDS011;73500;51.494;5.386;2024-03-06T05:25:04;4.57;;;2.72;;
61709;SDS011;73500;51.494;5.386;2024-03-06T05:27:30;4.63;;;2.85;;
61709;SDS011;73500;51.494;5.386;2024-03-06T05:29:57;4.57;;;2.70;;
61709;SDS011;73500;51.494;5.386;2024-03-06T05:32:22;4.97;;;2.88;;
61709;SDS011;73500;51.494;5.386;2024-03-06T05:34:47;5.32;;;3.20;;
61709;SDS011;73500;51.494;5.386;2024-03-06T05:37:12;4.70;;;3.08;;
61709;SDS011;73500;51.494;5.386;2024-03-06T05:39:38;5.22;;;2.88;;
61709;SDS011;73500;51.494;5.386;2024-03-06T05:42:03;5.35;;;3.10;;
61709;SDS011;73500;51.494;5.386;2024-03-06T05:44:32;4.35;;;2.80;;
61709;SDS011;73500;51.494;5.386;2024-03-06T05:46:59;4.30;;;2.88;;
61709;SDS011;73500;51.494;5.386;2024-03-06T05:49:25;5.18;;;3.50;;
61709;SDS011;73500;51.494;5.386;2024-03-06T05:51:52;5.50;;;3.30;;
61709;SDS011;73500;51.494;5.386;2024-03-06T05:54:17;4.72;;;2.70;;
61709;SDS011;73500;51.494;5.386;2024-03-06T05:56:44;3.88;;;2.42;;
61709;SDS011;73500;51.494;5.386;2024-03-06T05:59:09;4.15;;;2.40;;
61709;SDS011;73500;51.494;5.386;2024-03-06T06:01:34;4.25;;;2.60;;
61709;SDS011;73500;51.494;5.386;2024-03-06T06:04:00;4.85;;;2.70;;
61709;SDS011;73500;51.494;5.386;2024-03-06T06:06:26;4.70;;;2.55;;
61709;SDS011;73500;51.494;5.386;2024-03-06T06:08:52;4.22;;;2.40;;
61709;SDS011;73500;51.494;5.386;2024-03-06T06:11:17;4.10;;;2.30;;
61709;SDS011;73500;51.494;5.386;2024-03-06T06:13:43;4.25;;;2.13;;
61709;SDS011;73500;51.494;5.386;2024-03-06T06:16:08;4.00;;;2.08;;
61709;SDS011;73500;51.494;5.386;2024-03-06T06:18:33;4.13;;;1.75;;
61709;SDS011;73500;51.494;5.386;2024-03-06T06:20:59;3.65;;;2.00;;
61709;SDS011;73500;51.494;5.386;2024-03-06T06:23:24;3.95;;;2.17;;
61709;SDS011;73500;51.494;5.386;2024-03-06T06:25:50;3.78;;;2.00;;
61709;SDS011;73500;51.494;5.386;2024-03-06T06:28:16;3.92;;;2.22;;
61709;SDS011;73500;51.494;5.386;2024-03-06T06:30:41;3.40;;;2.05;;
61709;SDS011;73500;51.494;5.386;2024-03-06T06:33:07;4.00;;;2.20;;
61709;SDS011;73500;51.494;5.386;2024-03-06T06:35:33;4.03;;;1.90;;
61709;SDS011;73500;51.494;5.386;2024-03-06T06:37:59;4.70;;;2.00;;
61709;SDS011;73500;51.494;5.386;2024-03-06T06:40:25;4.35;;;2.17;;
61709;SDS011;73500;51.494;5.386;2024-03-06T06:42:50;4.47;;;2.17;;
61709;SDS011;73500;51.494;5.386;2024-03-06T06:45:16;3.50;;;2.08;;
61709;SDS011;73500;51.494;5.386;2024-03-06T06:47:42;3.92;;;2.17;;
61709;SDS011;73500;51.494;5.386;2024-03-06T06:50:07;3.70;;;1.83;;
61709;SDS011;73500;51.494;5.386;2024-03-06T06:52:34;4.45;;;2.10;;
61709;SDS011;73500;51.494;5.386;2024-03-06T06:55:02;4.32;;;2.20;;
61709;SDS011;73500;51.494;5.386;2024-03-06T06:57:28;3.78;;;1.85;;
61709;SDS011;73500;51.494;5.386;2024-03-06T06:59:54;4.05;;;1.92;;
61709;SDS011;73500;51.494;5.386;2024-03-06T07:02:19;3.67;;;1.90;;
61709;SDS011;73500;51.494;5.386;2024-03-06T07:04:44;3.95;;;2.10;;
61709;SDS011;73500;51.494;5.386;2024-03-06T07:07:10;4.03;;;1.73;;
61709;SDS011;73500;51.494;5.386;2024-03-06T07:09:35;3.60;;;1.90;;
61709;SDS011;73500;51.494;5.386;2024-03-06T07:12:00;3.38;;;2.03;;
61709;SDS011;73500;51.494;5.386;2024-03-06T07:14:26;3.88;;;2.05;;
61709;SDS011;73500;51.494;5.386;2024-03-06T07:16:51;5.10;;;2.17;;
61709;SDS011;73500;51.494;5.386;2024-03-06T07:19:16;3.80;;;2.00;;
61709;SDS011;73500;51.494;5.386;2024-03-06T07:21:42;3.78;;;2.00;;
61709;SDS011;73500;51.494;5.386;2024-03-06T07:24:07;4.63;;;2.05;;
61709;SDS011;73500;51.494;5.386;2024-03-06T07:26:33;4.20;;;1.92;;
61709;SDS011;73500;51.494;5.386;2024-03-06T07:28:58;4.50;;;1.90;;
61709;SDS011;73500;51.494;5.386;2024-03-06T07:31:24;4.10;;;1.98;;
61709;SDS011;73500;51.494;5.386;2024-03-06T07:33:50;4.53;;;2.28;;
61709;SDS011;73500;51.494;5.386;2024-03-06T07:36:15;4.55;;;2.08;;
61709;SDS011;73500;51.494;5.386;2024-03-06T07:38:41;4.68;;;2.08;;
61709;SDS011;73500;51.494;5.386;2024-03-06T07:41:07;3.78;;;2.00;;
61709;SDS011;73500;51.494;5.386;2024-03-06T07:43:32;4.10;;;2.00;;
61709;SDS011;73500;51.494;5.386;2024-03-06T07:45:57;6.70;;;2.20;;
61709;SDS011;73500;51.494;5.386;2024-03-06T07:48:23;4.82;;;2.03;;
61709;SDS011;73500;51.494;5.386;2024-03-06T07:50:49;4.43;;;2.00;;
61709;SDS011;73500;51.494;5.386;2024-03-06T07:53:14;4.10;;;2.00;;
61709;SDS011;73500;51.494;5.386;2024-03-06T07:55:41;4.95;;;2.10;;
61709;SDS011;73500;51.494;5.386;2024-03-06T07:58:06;4.63;;;1.98;;
61709;SDS011;73500;51.494;5.386;2024-03-06T08:00:33;4.82;;;2.00;;
61709;SDS011;73500;51.494;5.386;2024-03-06T08:02:58;3.80;;;1.83;;
61709;SDS011;73500;51.494;5.386;2024-03-06T08:05:25;4.43;;;2.25;;
61709;SDS011;73500;51.494;5.386;2024-03-06T08:07:51;3.92;;;2.03;;
61709;SDS011;73500;51.494;5.386;2024-03-06T08:10:16;4.15;;;2.20;;
61709;SDS011;73500;51.494;5.386;2024-03-06T08:12:43;4.88;;;2.00;;
61709;SDS011;73500;51.494;5.386;2024-03-06T08:15:10;4.70;;;2.10;;
61709;SDS011;73500;51.494;5.386;2024-03-06T08:17:41;4.50;;;2.30;;
61709;SDS011;73500;51.494;5.386;2024-03-06T08:20:08;4.05;;;1.88;;
61709;SDS011;73500;51.494;5.386;2024-03-06T08:22:35;4.38;;;2.30;;
61709;SDS011;73500;51.494;5.386;2024-03-06T08:25:04;5.03;;;2.50;;
61709;SDS011;73500;51.494;5.386;2024-03-06T08:27:32;5.38;;;2.20;;
61709;SDS011;73500;51.494;5.386;2024-03-06T08:29:57;4.47;;;1.80;;
61709;SDS011;73500;51.494;5.386;2024-03-06T08:32:22;4.07;;;2.15;;
61709;SDS011;73500;51.494;5.386;2024-03-06T08:34:47;4.72;;;2.13;;
61709;SDS011;73500;51.494;5.386;2024-03-06T08:37:13;4.00;;;2.03;;
61709;SDS011;73500;51.494;5.386;2024-03-06T08:39:38;4.10;;;2.00;;
61709;SDS011;73500;51.494;5.386;2024-03-06T08:42:04;3.92;;;1.90;;
61709;SDS011;73500;51.494;5.386;2024-03-06T08:44:29;5.57;;;2.00;;
61709;SDS011;73500;51.494;5.386;2024-03-06T08:46:55;5.22;;;2.10;;
61709;SDS011;73500;51.494;5.386;2024-03-06T08:49:20;3.80;;;2.00;;
61709;SDS011;73500;51.494;5.386;2024-03-06T08:51:46;5.00;;;2.23;;
61709;SDS011;73500;51.494;5.386;2024-03-06T08:54:11;5.13;;;1.85;;
61709;SDS011;73500;51.494;5.386;2024-03-06T08:56:36;4.78;;;1.80;;
61709;SDS011;73500;51.494;5.386;2024-03-06T08:59:01;3.75;;;1.70;;
61709;SDS011;73500;51.494;5.386;2024-03-06T09:01:27;4.18;;;1.85;;
61709;SDS011;73500;51.494;5.386;2024-03-06T09:03:53;4.20;;;1.75;;
61709;SDS011;73500;51.494;5.386;2024-03-06T09:06:18;4.78;;;1.80;;
61709;SDS011;73500;51.494;5.386;2024-03-06T09:08:43;3.90;;;1.80;;
61709;SDS011;73500;51.494;5.386;2024-03-06T09:11:08;4.27;;;1.77;;
61709;SDS011;73500;51.494;5.386;2024-03-06T09:13:34;4.63;;;2.03;;
61709;SDS011;73500;51.494;5.386;2024-03-06T09:15:59;3.58;;;1.60;;
61709;SDS011;73500;51.494;5.386;2024-03-06T09:18:24;4.50;;;1.70;;
61709;SDS011;73500;51.494;5.386;2024-03-06T09:20:50;3.88;;;1.80;;
61709;SDS011;73500;51.494;5.386;2024-03-06T09:23:15;4.35;;;1.77;;
61709;SDS011;73500;51.494;5.386;2024-03-06T09:25:41;3.75;;;1.85;;
61709;SDS011;73500;51.494;5.386;2024-03-06T09:28:06;4.82;;;1.90;;
61709;SDS011;73500;51.494;5.386;2024-03-06T09:30:33;4.15;;;1.80;;
61709;SDS011;73500;51.494;5.386;2024-03-06T09:32:59;5.03;;;2.17;;
61709;SDS011;73500;51.494;5.386;2024-03-06T09:35:24;3.60;;;1.70;;
61709;SDS011;73500;51.494;5.386;2024-03-06T09:37:49;6.35;;;1.90;;
61709;SDS011;73500;51.494;5.386;2024-03-06T09:40:21;3.90;;;1.70;;
61709;SDS011;73500;51.494;5.386;2024-03-06T09:42:48;7.72;;;2.17;;
61709;SDS011;73500;51.494;5.386;2024-03-06T09:45:14;4.25;;;1.88;;
61709;SDS011;73500;51.494;5.386;2024-03-06T09:47:40;6.18;;;1.83;;
61709;SDS011;73500;51.494;5.386;2024-03-06T09:50:08;4.15;;;1.73;;
61709;SDS011;73500;51.494;5.386;2024-03-06T09:52:34;4.25;;;1.90;;
61709;SDS011;73500;51.494;5.386;2024-03-06T09:55:01;3.47;;;1.80;;
61709;SDS011;73500;51.494;5.386;2024-03-06T09:57:27;3.42;;;1.58;;
61709;SDS011;73500;51.494;5.386;2024-03-06T09:59:53;3.72;;;1.63;;
61709;SDS011;73500;51.494;5.386;2024-03-06T10:02:31;5.05;;;1.77;;
61709;SDS011;73500;51.494;5.386;2024-03-06T10:05:02;3.35;;;1.55;;
61709;SDS011;73500;51.494;5.386;2024-03-06T10:07:28;3.25;;;1.40;;
61709;SDS011;73500;51.494;5.386;2024-03-06T10:09:53;5.22;;;1.83;;
61709;SDS011;73500;51.494;5.386;2024-03-06T10:12:18;4.25;;;1.48;;
61709;SDS011;73500;51.494;5.386;2024-03-06T10:14:53;4.32;;;1.48;;
61709;SDS011;73500;51.494;5.386;2024-03-06T10:17:21;5.78;;;1.88;;
61709;SDS011;73500;51.494;5.386;2024-03-06T10:19:48;3.97;;;1.70;;
61709;SDS011;73500;51.494;5.386;2024-03-06T10:22:16;4.22;;;1.50;;
61709;SDS011;73500;51.494;5.386;2024-03-06T10:24:42;4.22;;;1.48;;
61709;SDS011;73500;51.494;5.386;2024-03-06T10:27:07;4.05;;;1.60;;
61709;SDS011;73500;51.494;5.386;2024-03-06T10:29:34;3.35;;;1.40;;
61709;SDS011;73500;51.494;5.386;2024-03-06T10:32:00;4.95;;;1.55;;
61709;SDS011;73500;51.494;5.386;2024-03-06T10:34:26;3.75;;;1.58;;
61709;SDS011;73500;51.494;5.386;2024-03-06T10:36:56;3.67;;;1.40;;
61709;SDS011;73500;51.494;5.386;2024-03-06T10:39:23;7.75;;;1.67;;
61709;SDS011;73500;51.494;5.386;2024-03-06T10:41:51;4.40;;;1.70;;
61709;SDS011;73500;51.494;5.386;2024-03-06T10:44:23;5.15;;;1.65;;
61709;SDS011;73500;51.494;5.386;2024-03-06T10:46:58;3.75;;;1.38;;
61709;SDS011;73500;51.494;5.386;2024-03-06T10:49:28;4.38;;;1.50;;
61709;SDS011;73500;51.494;5.386;2024-03-06T10:52:04;3.33;;;1.50;;
61709;SDS011;73500;51.494;5.386;2024-03-06T10:54:33;3.22;;;1.33;;
61709;SDS011;73500;51.494;5.386;2024-03-06T10:57:06;4.43;;;1.25;;
61709;SDS011;73500;51.494;5.386;2024-03-06T10:59:33;3.50;;;1.33;;
61709;SDS011;73500;51.494;5.386;2024-03-06T11:01:59;3.40;;;1.30;;
61709;SDS011;73500;51.494;5.386;2024-03-06T11:04:28;3.85;;;1.23;;
61709;SDS011;73500;51.494;5.386;2024-03-06T11:07:02;3.75;;;1.52;;
61709;SDS011;73500;51.494;5.386;2024-03-06T11:09:32;4.25;;;1.38;;
61709;SDS011;73500;51.494;5.386;2024-03-06T11:12:05;2.65;;;1.42;;
61709;SDS011;73500;51.494;5.386;2024-03-06T11:14:32;2.60;;;1.17;;
61709;SDS011;73500;51.494;5.386;2024-03-06T11:17:02;3.58;;;1.20;;
61709;SDS011;73500;51.494;5.386;2024-03-06T11:19:29;4.20;;;1.42;;
61709;SDS011;73500;51.494;5.386;2024-03-06T11:21:56;3.15;;;1.10;;
61709;SDS011;73500;51.494;5.386;2024-03-06T11:24:22;4.63;;;1.38;;
61709;SDS011;73500;51.494;5.386;2024-03-06T11:26:55;2.90;;;1.30;;
61709;SDS011;73500;51.494;5.386;2024-03-06T11:29:23;3.97;;;1.48;;
61709;SDS011;73500;51.494;5.386;2024-03-06T11:31:59;3.20;;;1.20;;
61709;SDS011;73500;51.494;5.386;2024-03-06T11:34:25;3.63;;;1.17;;
61709;SDS011;73500;51.494;5.386;2024-03-06T11:36:56;5.15;;;1.73;;
61709;SDS011;73500;51.494;5.386;2024-03-06T11:39:22;3.60;;;1.38;;
61709;SDS011;73500;51.494;5.386;2024-03-06T11:41:48;3.10;;;1.20;;
61709;SDS011;73500;51.494;5.386;2024-03-06T11:44:15;3.50;;;1.10;;
61709;SDS011;73500;51.494;5.386;2024-03-06T11:46:44;3.92;;;1.27;;
61709;SDS011;73500;51.494;5.386;2024-03-06T11:49:18;5.05;;;1.25;;
61709;SDS011;73500;51.494;5.386;2024-03-06T11:51:49;4.70;;;1.20;;
61709;SDS011;73500;51.494;5.386;2024-03-06T11:54:16;3.47;;;1.25;;
61709;SDS011;73500;51.494;5.386;2024-03-06T11:56:47;3.00;;;1.30;;
61709;SDS011;73500;51.494;5.386;2024-03-06T11:59:12;3.35;;;1.30;;
61709;SDS011;73500;51.494;5.386;2024-03-06T12:01:38;3.17;;;1.10;;
61709;SDS011;73500;51.494;5.386;2024-03-06T12:04:03;6.47;;;1.33;;
61709;SDS011;73500;51.494;5.386;2024-03-06T12:06:32;4.05;;;1.17;;
61709;SDS011;73500;51.494;5.386;2024-03-06T12:08:58;3.97;;;1.30;;
61709;SDS011;73500;51.494;5.386;2024-03-06T12:11:23;2.75;;;1.10;;
61709;SDS011;73500;51.494;5.386;2024-03-06T12:13:50;4.57;;;1.42;;
61709;SDS011;73500;51.494;5.386;2024-03-06T12:16:16;4.72;;;1.20;;
61709;SDS011;73500;51.494;5.386;2024-03-06T12:18:42;3.03;;;1.08;;
61709;SDS011;73500;51.494;5.386;2024-03-06T12:21:07;3.90;;;1.25;;
61709;SDS011;73500;51.494;5.386;2024-03-06T12:23:33;2.20;;;1.00;;
61709;SDS011;73500;51.494;5.386;2024-03-06T12:26:04;3.58;;;1.23;;
61709;SDS011;73500;51.494;5.386;2024-03-06T12:28:33;6.57;;;1.70;;
61709;SDS011;73500;51.494;5.386;2024-03-06T12:30:58;4.93;;;2.00;;
61709;SDS011;73500;51.494;5.386;2024-03-06T12:33:30;4.70;;;1.67;;
61709;SDS011;73500;51.494;5.386;2024-03-06T12:36:06;4.50;;;1.50;;
61709;SDS011;73500;51.494;5.386;2024-03-06T12:38:35;6.30;;;1.95;;
61709;SDS011;73500;51.494;5.386;2024-03-06T12:41:01;4.55;;;1.67;;
61709;SDS011;73500;51.494;5.386;2024-03-06T12:43:26;5.75;;;1.80;;
61709;SDS011;73500;51.494;5.386;2024-03-06T12:45:53;5.10;;;1.65;;
61709;SDS011;73500;51.494;5.386;2024-03-06T12:48:20;6.00;;;1.52;;
61709;SDS011;73500;51.494;5.386;2024-03-06T12:50:46;6.55;;;1.80;;
61709;SDS011;73500;51.494;5.386;2024-03-06T12:53:16;6.05;;;1.52;;
61709;SDS011;73500;51.494;5.386;2024-03-06T12:55:42;6.07;;;1.83;;
61709;SDS011;73500;51.494;5.386;2024-03-06T12:58:10;5.38;;;1.40;;
61709;SDS011;73500;51.494;5.386;2024-03-06T13:00:36;3.75;;;1.50;;
61709;SDS011;73500;51.494;5.386;2024-03-06T13:03:01;5.93;;;1.60;;
61709;SDS011;73500;51.494;5.386;2024-03-06T13:05:27;6.55;;;1.75;;
61709;SDS011;73500;51.494;5.386;2024-03-06T13:07:52;5.13;;;1.35;;
61709;SDS011;73500;51.494;5.386;2024-03-06T13:10:17;4.47;;;1.77;;
61709;SDS011;73500;51.494;5.386;2024-03-06T13:12:42;4.97;;;1.70;;
61709;SDS011;73500;51.494;5.386;2024-03-06T13:15:08;4.57;;;1.60;;
61709;SDS011;73500;51.494;5.386;2024-03-06T13:17:34;4.75;;;1.40;;
61709;SDS011;73500;51.494;5.386;2024-03-06T13:19:59;2.63;;;1.38;;
61709;SDS011;73500;51.494;5.386;2024-03-06T13:22:25;5.72;;;1.75;;
61709;SDS011;73500;51.494;5.386;2024-03-06T13:24:50;4.15;;;1.42;;
61709;SDS011;73500;51.494;5.386;2024-03-06T13:27:16;5.55;;;1.70;;
61709;SDS011;73500;51.494;5.386;2024-03-06T13:29:41;6.45;;;1.73;;
61709;SDS011;73500;51.494;5.386;2024-03-06T13:32:07;3.72;;;1.23;;
61709;SDS011;73500;51.494;5.386;2024-03-06T13:34:32;5.40;;;1.60;;
61709;SDS011;73500;51.494;5.386;2024-03-06T13:36:58;5.10;;;1.52;;
61709;SDS011;73500;51.494;5.386;2024-03-06T13:39:24;5.07;;;1.48;;
61709;SDS011;73500;51.494;5.386;2024-03-06T13:41:49;4.30;;;1.55;;
61709;SDS011;73500;51.494;5.386;2024-03-06T13:44:14;4.80;;;1.58;;
61709;SDS011;73500;51.494;5.386;2024-03-06T13:46:40;3.83;;;1.60;;
61709;SDS011;73500;51.494;5.386;2024-03-06T13:49:05;3.50;;;1.20;;
61709;SDS011;73500;51.494;5.386;2024-03-06T13:51:30;5.00;;;1.85;;
61709;SDS011;73500;51.494;5.386;2024-03-06T13:53:56;5.32;;;1.80;;
61709;SDS011;73500;51.494;5.386;2024-03-06T13:56:22;3.30;;;1.50;;
61709;SDS011;73500;51.494;5.386;2024-03-06T13:58:48;4.88;;;1.40;;
61709;SDS011;73500;51.494;5.386;2024-03-06T14:01:13;4.03;;;1.52;;
61709;SDS011;73500;51.494;5.386;2024-03-06T14:03:38;3.47;;;1.40;;
61709;SDS011;73500;51.494;5.386;2024-03-06T14:06:04;3.97;;;1.30;;
61709;SDS011;73500;51.494;5.386;2024-03-06T14:08:32;5.68;;;1.40;;
61709;SDS011;73500;51.494;5.386;2024-03-06T14:10:57;2.97;;;1.17;;
61709;SDS011;73500;51.494;5.386;2024-03-06T14:13:23;4.35;;;1.30;;
61709;SDS011;73500;51.494;5.386;2024-03-06T14:15:48;4.63;;;1.40;;
61709;SDS011;73500;51.494;5.386;2024-03-06T14:18:14;4.00;;;1.33;;
61709;SDS011;73500;51.494;5.386;2024-03-06T14:20:39;3.83;;;1.30;;
61709;SDS011;73500;51.494;5.386;2024-03-06T14:23:05;3.95;;;1.30;;
61709;SDS011;73500;51.494;5.386;2024-03-06T14:25:30;4.55;;;1.35;;
61709;SDS011;73500;51.494;5.386;2024-03-06T14:27:59;3.75;;;1.40;;
61709;SDS011;73500;51.494;5.386;2024-03-06T14:30:25;2.90;;;1.15;;
61709;SDS011;73500;51.494;5.386;2024-03-06T14:32:50;3.20;;;1.20;;
61709;SDS011;73500;51.494;5.386;2024-03-06T14:35:15;3.83;;;1.33;;
61709;SDS011;73500;51.494;5.386;2024-03-06T14:37:44;3.30;;;1.10;;
61709;SDS011;73500;51.494;5.386;2024-03-06T14:40:09;4.70;;;1.35;;
61709;SDS011;73500;51.494;5.386;2024-03-06T14:42:35;2.83;;;1.25;;